Meath Environmental Platform

Observations for Trim Market St

Time AQI Temp °C Hum % Pres Pa CO μg/m³ H₂S μg/m³ NO μg/m³ NO₂ μg/m³ O₃ μg/m³ SO₂ μg/m³ PM1 μg/m³ PM2.5 μg/m³ PM10 μg/m³
Friday 21 August 2026
21:47 2 14.9 64 57,686 0.15 0 2.43 9.71 58.14 0 0.71 1.84 2.9
21:46 2 14.9 64 57,689 0.17 0 2.5 9.71 58.17 0 1.43 2.84 5.54
21:45 2 15 64 57,694 0.18 0 2.16 11.99 57.19 0 0.71 2.84 4.22
21:44 2 15 64 57,697 0.2 0 2.2 16.46 51.51 0 0.71 2.84 4.22
21:43 2 15 64 57,701 0.21 0 1.87 18.3 49.54 0 1.43 3.34 6.2
21:42 2 15 64 57,705 0.18 0 1.95 11.59 56.59 0 2.14 4.33 6.87
21:41 2 15.1 64 57,709 0.19 0 1.78 11.61 57.83 0 0.71 2.35 3.55
21:40 2 15.1 64 57,713 0.17 0 1.76 17.25 50.31 0 0.71 2.36 4.21
21:39 2 15.1 64 57,716 0.18 0 1.69 19.7 51.6 0 1.43 2.85 5.54
21:38 2 15.2 64 57,719 0.22 0 1.71 18.02 49.97 0 0 2.36 5.54
21:37 2 15.2 64 57,723 0.32 0 1.67 13.92 55.34 0 0.71 2.37 3.54
21:36 2 15.2 64 57,726 0.15 0 1.99 11.62 58.35 0 0.71 2.37 4.87
21:35 2 15.3 64 57,730 0.15 0 2.09 13.84 54.96 0 0.71 2.37 4.87
21:32 2 15.4 63 57,737 0.16 0 1.75 18.14 55.98 0 2.14 3.87 5.53
21:31 2 15.4 63 57,739 0.15 0 1.78 11.81 64.01 0 2.14 3.37 4.86
21:28 2 15.5 63 57,750 0.16 0 3.25 20.33 53.11 0 0.71 3.38 4.86
21:27 2 15.5 63 57,751 0.13 0 4.07 19.93 53.26 0 1.43 2.4 3.52
21:17 2 15.8 62 57,768 0.14 0 2.83 28.14 39.26 0 0.71 4.91 7.53
21:16 2 15.9 62 57,770 0.1 0 2.76 18.21 54.61 0 4.28 6.9 11.57
21:15 2 15.9 62 57,773 0.12 0 1.95 24.11 55.94 0 3.56 5.92 9.55